createdAt,value
2018-04-22T00:00:03.263Z,8.90
2018-04-22T00:03:09.510Z,8.83
2018-04-22T00:06:15.023Z,8.79
2018-04-22T00:09:20.258Z,8.75
2018-04-22T00:12:26.104Z,8.71
2018-04-22T00:15:32.337Z,8.67
2018-04-22T00:18:39.173Z,8.58
2018-04-22T00:21:46.213Z,8.53
2018-04-22T00:24:52.342Z,8.52
2018-04-22T00:27:59.389Z,8.49
2018-04-22T00:31:06.461Z,8.42
2018-04-22T00:34:13.521Z,8.40
2018-04-22T00:37:19.638Z,8.34
2018-04-22T00:40:25.389Z,8.30
2018-04-22T00:43:30.608Z,8.28
2018-04-22T00:46:36.121Z,8.23
2018-04-22T00:49:42.250Z,8.20
2018-04-22T00:52:47.482Z,8.14
2018-04-22T00:55:53.593Z,8.15
2018-04-22T00:58:59.753Z,8.08
2018-04-22T01:02:05.794Z,8.08
2018-04-22T01:05:11.636Z,7.99
2018-04-22T01:08:17.495Z,7.90
2018-04-22T01:11:23.667Z,7.90
2018-04-22T01:14:30.504Z,7.85
2018-04-22T01:17:35.826Z,7.83
2018-04-22T01:20:42.887Z,7.75
2018-04-22T01:23:49.013Z,7.72
2018-04-22T01:26:55.149Z,7.67
2018-04-22T01:30:02.233Z,7.66
2018-04-22T01:33:09.256Z,7.65
2018-04-22T01:36:15.393Z,7.59
2018-04-22T01:39:21.246Z,7.53
2018-04-22T01:42:26.451Z,7.53
2018-04-22T01:45:31.706Z,7.48
2018-04-22T01:48:36.901Z,7.46
2018-04-22T01:51:42.132Z,7.44
2018-04-22T01:54:47.046Z,7.38
2018-04-22T01:57:52.766Z,7.33
2018-04-22T02:00:58.908Z,7.32
2018-04-22T02:04:04.538Z,7.29
2018-04-22T02:07:09.561Z,7.25
2018-04-22T02:10:16.297Z,7.20
2018-04-22T02:13:21.289Z,7.19
2018-04-22T02:16:26.553Z,7.14
2018-04-22T02:19:31.818Z,7.13
2018-04-22T02:22:37.090Z,7.09
2018-04-22T02:25:43.190Z,7.04
2018-04-22T02:28:50.098Z,7.03
2018-04-22T02:31:55.602Z,6.97
2018-04-22T02:35:01.769Z,6.91
2018-04-22T02:38:07.537Z,6.91
2018-04-22T02:41:14.406Z,6.87
2018-04-22T02:44:21.474Z,6.82
2018-04-22T02:47:27.165Z,6.75
2018-04-22T02:50:33.325Z,6.75
2018-04-22T02:53:39.014Z,6.68
2018-04-22T02:56:45.002Z,6.65
2018-04-22T02:59:50.904Z,6.64
2018-04-22T03:02:57.888Z,6.64
2018-04-22T03:06:04.899Z,6.63
2018-04-22T03:09:11.934Z,6.55
2018-04-22T03:12:18.961Z,6.56
2018-04-22T03:15:25.069Z,6.49
2018-04-22T03:18:30.977Z,6.47
2018-04-22T03:21:37.745Z,6.46
2018-04-22T03:24:44.772Z,6.40
2018-04-22T03:27:50.593Z,6.37
2018-04-22T03:30:55.878Z,6.35
2018-04-22T03:34:02.069Z,6.30
2018-04-22T03:37:07.871Z,6.26
2018-04-22T03:40:13.135Z,6.23
2018-04-22T03:43:19.221Z,6.27
2018-04-22T03:46:26.513Z,6.25
2018-04-22T03:49:31.970Z,6.24
2018-04-22T03:52:37.849Z,6.21
2018-04-22T03:55:43.930Z,6.15
2018-04-22T03:58:49.818Z,6.12
2018-04-22T04:01:55.961Z,6.06
2018-04-22T04:05:01.225Z,6.06
2018-04-22T04:08:07.394Z,6.05
2018-04-22T04:11:13.263Z,6.06
2018-04-22T04:14:19.505Z,6.03
2018-04-22T04:17:25.578Z,5.93
2018-04-22T04:20:43.509Z,5.96
2018-04-22T04:27:49.812Z,5.88
2018-04-22T04:30:55.685Z,5.84
2018-04-22T04:34:02.489Z,5.80
2018-04-22T04:37:08.365Z,5.80
2018-04-22T04:40:14.482Z,5.77
2018-04-22T04:43:20.353Z,5.83
2018-04-22T04:46:26.602Z,5.76
2018-04-22T04:49:32.419Z,5.73
2018-04-22T04:52:38.611Z,5.73
2018-04-22T04:55:44.721Z,5.69
2018-04-22T04:58:50.929Z,5.67
2018-04-22T05:01:56.197Z,5.69
2018-04-22T05:05:01.458Z,5.69
2018-04-22T05:08:06.757Z,5.69
2018-04-22T05:11:12.039Z,5.69
2018-04-22T05:14:17.331Z,5.69
2018-04-22T05:17:22.616Z,5.71
2018-04-22T05:20:29.190Z,5.68
2018-04-22T05:23:34.997Z,5.69
2018-04-22T05:26:41.167Z,5.71
2018-04-22T05:29:48.231Z,5.77
2018-04-22T05:32:55.352Z,5.88
2018-04-22T05:36:01.155Z,5.86
2018-04-22T05:39:06.505Z,5.87
2018-04-22T05:42:12.813Z,5.98
2018-04-22T05:45:18.645Z,6.06
2018-04-22T05:48:25.445Z,6.13
2018-04-22T05:51:31.248Z,6.13
2018-04-22T05:54:37.356Z,6.18
2018-04-22T05:57:44.474Z,6.24
2018-04-22T06:00:50.348Z,6.33
2018-04-22T06:03:55.613Z,6.45
2018-04-22T06:07:01.622Z,6.51
2018-04-22T06:10:07.431Z,6.56
2018-04-22T06:13:12.697Z,6.64
2018-04-22T06:16:17.442Z,6.74
2018-04-22T06:19:22.707Z,6.84
2018-04-22T06:22:29.001Z,6.92
2018-04-22T06:25:34.888Z,7.03
2018-04-22T06:28:41.071Z,7.11
2018-04-22T06:31:47.249Z,7.22
2018-04-22T06:34:53.996Z,7.34
2018-04-22T06:37:59.967Z,7.45
2018-04-22T06:41:05.234Z,7.57
2018-04-22T06:44:11.474Z,7.70
2018-04-22T06:47:18.477Z,7.82
2018-04-22T06:50:24.270Z,7.95
2018-04-22T06:53:30.394Z,8.07
2018-04-22T06:56:37.279Z,8.18
2018-04-22T06:59:43.066Z,8.31
2018-04-22T07:02:49.240Z,8.43
2018-04-22T07:05:54.556Z,8.54
2018-04-22T07:09:00.915Z,8.67
2018-04-22T07:12:06.394Z,8.77
2018-04-22T07:15:11.710Z,8.89
2018-04-22T07:18:16.375Z,9.00
2018-04-22T07:21:23.562Z,9.12
2018-04-22T07:24:29.385Z,9.24
2018-04-22T07:27:35.275Z,9.36
2018-04-22T07:30:41.211Z,9.46
2018-04-22T07:33:47.412Z,9.57
2018-04-22T07:36:54.526Z,9.69
2018-04-22T07:40:00.318Z,9.79
2018-04-22T07:43:06.238Z,9.90
2018-04-22T07:46:13.121Z,10.01
2018-04-22T07:49:20.157Z,10.11
2018-04-22T07:52:27.211Z,10.22
2018-04-22T07:55:34.240Z,10.33
2018-04-22T07:58:40.322Z,10.45
2018-04-22T08:01:46.213Z,10.57
2018-04-22T08:04:52.304Z,10.69
2018-04-22T08:07:58.185Z,10.80
2018-04-22T08:11:03.873Z,10.92
2018-04-22T08:14:10.981Z,11.04
2018-04-22T08:17:17.106Z,11.15
2018-04-22T08:20:23.279Z,11.27
2018-04-22T08:23:29.485Z,11.38
2018-04-22T08:26:35.865Z,11.49
2018-04-22T08:29:41.953Z,11.62
2018-04-22T08:32:48.142Z,11.73
2018-04-22T08:35:54.327Z,11.82
2018-04-22T08:39:01.459Z,11.95
2018-04-22T08:42:06.989Z,12.05
2018-04-22T08:45:13.142Z,12.18
2018-04-22T08:48:19.277Z,12.31
2018-04-22T08:51:25.410Z,12.43
2018-04-22T08:54:31.494Z,12.56
2018-04-22T08:57:38.513Z,12.69
2018-04-22T09:00:44.622Z,12.83
2018-04-22T09:03:50.818Z,12.97
2018-04-22T09:06:56.977Z,13.10
2018-04-22T09:10:03.080Z,13.25
2018-04-22T09:13:08.154Z,13.38
2018-04-22T09:16:14.146Z,13.53
2018-04-22T09:19:20.130Z,13.66
2018-04-22T09:22:26.053Z,13.80
2018-04-22T09:25:31.934Z,13.94
2018-04-22T09:28:38.935Z,14.09
2018-04-22T09:31:45.919Z,14.24
2018-04-22T09:34:53.042Z,14.37
2018-04-22T09:37:59.873Z,14.49
2018-04-22T09:41:05.431Z,14.62
2018-04-22T09:44:12.237Z,14.76
2018-04-22T09:47:18.430Z,14.89
2018-04-22T09:50:25.570Z,15.03
2018-04-22T09:53:31.838Z,15.17
2018-04-22T09:56:37.401Z,15.30
2018-04-22T09:59:43.316Z,15.43
2018-04-22T10:02:49.191Z,15.57
2018-04-22T10:05:54.843Z,15.70
2018-04-22T10:09:00.113Z,15.91
2018-04-22T10:12:05.055Z,16.17
2018-04-22T10:15:09.996Z,16.29
2018-04-22T10:18:17.038Z,16.32
2018-04-22T10:21:24.149Z,16.31
2018-04-22T10:24:29.941Z,16.32
2018-04-22T10:27:36.051Z,16.31
2018-04-22T10:30:41.346Z,16.33
2018-04-22T10:33:48.338Z,16.37
2018-04-22T10:36:54.223Z,16.38
2018-04-22T10:39:59.510Z,16.39
2018-04-22T10:43:05.697Z,16.40
2018-04-22T10:46:11.872Z,16.42
2018-04-22T10:49:17.152Z,16.43
2018-04-22T10:52:23.346Z,16.46
2018-04-22T10:55:30.154Z,16.47
2018-04-22T10:58:37.196Z,16.48
2018-04-22T11:01:44.206Z,16.51
2018-04-22T11:04:50.346Z,16.55
2018-04-22T11:07:57.351Z,16.56
2018-04-22T11:11:03.463Z,16.58
2018-04-22T11:14:09.634Z,16.60
2018-04-22T11:17:16.445Z,16.63
2018-04-22T11:20:23.554Z,16.67
2018-04-22T11:23:30.181Z,16.73
2018-04-22T11:26:36.281Z,16.73
2018-04-22T11:29:42.261Z,16.74
2018-04-22T11:32:49.060Z,16.78
2018-04-22T11:35:54.916Z,16.81
2018-04-22T11:39:00.197Z,16.83
2018-04-22T11:42:05.571Z,16.88
2018-04-22T11:45:11.745Z,16.94
2018-04-22T11:48:17.859Z,16.97
2018-04-22T11:51:24.870Z,17.01
2018-04-22T11:54:30.997Z,17.07
2018-04-22T11:57:36.872Z,17.12
2018-04-22T12:00:42.749Z,17.17
2018-04-22T12:03:48.022Z,17.24
2018-04-22T12:06:54.239Z,17.31
2018-04-22T12:10:00.345Z,17.39
2018-04-22T12:13:07.129Z,17.42
2018-04-22T12:16:13.290Z,17.48
2018-04-22T12:19:19.394Z,17.55
2018-04-22T12:22:25.754Z,17.65
2018-04-22T12:25:31.676Z,17.73
2018-04-22T12:28:37.804Z,17.75
2018-04-22T12:31:43.710Z,17.79
2018-04-22T12:34:49.557Z,17.87
2018-04-22T12:37:54.867Z,17.89
2018-04-22T12:41:01.043Z,17.94
2018-04-22T12:44:06.934Z,17.97
2018-04-22T12:47:11.949Z,18.03
2018-04-22T12:50:17.226Z,18.06
2018-04-22T12:53:23.326Z,18.10
2018-04-22T12:56:29.574Z,18.14
2018-04-22T12:59:34.843Z,18.20
2018-04-22T13:02:41.129Z,18.26
2018-04-22T13:05:47.965Z,18.32
2018-04-22T13:08:54.062Z,18.37
2018-04-22T13:11:59.339Z,18.39
2018-04-22T13:15:04.606Z,18.41
2018-04-22T13:18:10.916Z,18.43
2018-04-22T13:21:17.035Z,18.46
2018-04-22T13:24:24.144Z,18.51
2018-04-22T13:27:29.602Z,18.59
2018-04-22T13:30:36.893Z,18.69
2018-04-22T13:33:43.601Z,18.78
2018-04-22T13:36:50.817Z,18.83
2018-04-22T13:39:56.619Z,18.87
2018-04-22T13:43:03.442Z,18.94
2018-04-22T13:46:09.221Z,19.02
2018-04-22T13:49:14.485Z,19.12
2018-04-22T13:52:19.946Z,19.20
2018-04-22T13:55:26.161Z,19.26
2018-04-22T13:58:32.299Z,19.28
2018-04-22T14:01:38.189Z,19.35
2018-04-22T14:04:44.369Z,19.39
2018-04-22T14:07:50.475Z,19.40
2018-04-22T14:10:56.657Z,19.44
2018-04-22T14:14:02.542Z,19.51
2018-04-22T14:17:08.667Z,19.55
2018-04-22T14:20:13.713Z,19.61
2018-04-22T14:23:18.750Z,19.69
2018-04-22T14:26:24.935Z,19.70
2018-04-22T14:29:30.235Z,19.74
2018-04-22T14:32:35.507Z,19.75
2018-04-22T14:35:41.759Z,19.80
2018-04-22T14:38:47.942Z,19.86
2018-04-22T14:41:54.756Z,19.92
2018-04-22T14:45:12.018Z,19.97
2018-04-22T14:48:17.649Z,20.02
2018-04-22T14:51:23.568Z,20.06
2018-04-22T14:54:29.303Z,20.05
2018-04-22T14:57:36.481Z,20.07
2018-04-22T15:00:43.218Z,20.11
2018-04-22T15:03:49.326Z,20.15
2018-04-22T15:06:56.330Z,20.17
2018-04-22T15:10:02.156Z,20.27
2018-04-22T15:13:08.077Z,20.20
2018-04-22T15:16:13.359Z,20.23
2018-04-22T15:19:19.454Z,20.23
2018-04-22T15:22:25.542Z,20.23
2018-04-22T15:25:31.756Z,20.23
2018-04-22T15:28:37.831Z,20.26
2018-04-22T15:31:43.729Z,20.23
2018-04-22T15:34:49.842Z,20.22
2018-04-22T15:37:56.073Z,20.21
2018-04-22T15:41:02.895Z,20.21
2018-04-22T15:44:10.039Z,20.23
2018-04-22T15:47:16.029Z,20.24
2018-04-22T15:50:21.922Z,20.26
2018-04-22T15:53:27.833Z,20.28
2018-04-22T15:56:33.762Z,20.27
2018-04-22T15:59:40.789Z,20.26
2018-04-22T16:02:46.874Z,20.22
2018-04-22T16:05:52.784Z,20.22
2018-04-22T16:08:58.894Z,20.23
2018-04-22T16:12:04.973Z,20.18
2018-04-22T16:15:11.810Z,20.15
2018-04-22T16:18:17.911Z,20.13
2018-04-22T16:21:23.997Z,20.11
2018-04-22T16:24:28.943Z,20.11
2018-04-22T16:27:34.222Z,20.10
2018-04-22T16:30:41.346Z,20.06
2018-04-22T16:33:47.657Z,20.02
2018-04-22T16:36:54.903Z,20.00
2018-04-22T16:40:01.879Z,19.95
2018-04-22T16:43:08.081Z,19.91
2018-04-22T16:46:13.986Z,19.92
2018-04-22T16:49:20.206Z,19.88
2018-04-22T16:52:25.847Z,19.86
2018-04-22T16:55:32.098Z,19.82
2018-04-22T16:58:39.186Z,19.77
2018-04-22T17:01:45.983Z,19.73
2018-04-22T17:04:52.993Z,19.69
2018-04-22T17:08:00.125Z,19.64
2018-04-22T17:11:05.977Z,19.61
2018-04-22T17:14:11.865Z,19.55
2018-04-22T17:17:18.678Z,19.53
2018-04-22T17:20:25.685Z,19.47
2018-04-22T17:23:32.843Z,19.41
2018-04-22T17:26:38.650Z,19.35
2018-04-22T17:29:45.661Z,19.29
2018-04-22T17:32:51.753Z,19.22
2018-04-22T17:35:57.770Z,19.16
2018-04-22T17:39:03.405Z,19.11
2018-04-22T17:42:09.589Z,19.06
2018-04-22T17:45:16.572Z,19.00
2018-04-22T17:48:22.678Z,18.94
2018-04-22T17:51:28.567Z,18.87
2018-04-22T17:54:34.699Z,18.80
2018-04-22T17:57:40.582Z,18.71
2018-04-22T18:00:47.393Z,18.64
2018-04-22T18:03:54.621Z,18.58
2018-04-22T18:07:00.456Z,18.50
2018-04-22T18:10:06.462Z,18.40
2018-04-22T18:13:12.540Z,18.31
2018-04-22T18:16:20.095Z,18.23
2018-04-22T18:19:25.412Z,18.14
2018-04-22T18:22:31.506Z,18.06
2018-04-22T18:25:37.631Z,17.97
2018-04-22T18:28:44.623Z,17.88
2018-04-22T18:31:50.840Z,17.78
2018-04-22T18:34:56.642Z,17.68
2018-04-22T18:38:03.642Z,17.60
2018-04-22T18:41:09.782Z,17.50
2018-04-22T18:44:15.720Z,17.42
2018-04-22T18:47:21.874Z,17.33
2018-04-22T18:50:27.151Z,17.24
2018-04-22T18:53:33.564Z,17.14
2018-04-22T18:56:40.393Z,17.07
2018-04-22T18:59:46.549Z,16.99
2018-04-22T19:02:51.901Z,16.90
2018-04-22T19:05:57.219Z,16.82
2018-04-22T19:09:02.369Z,16.75
2018-04-22T19:12:07.370Z,16.67
2018-04-22T19:15:12.663Z,16.60
2018-04-22T19:18:19.025Z,16.54
2018-04-22T19:21:25.141Z,16.46
2018-04-22T19:24:31.370Z,16.39
2018-04-22T19:27:37.677Z,16.33
2018-04-22T19:30:43.650Z,16.26
2018-04-22T19:33:50.353Z,16.21
2018-04-22T19:36:55.663Z,16.16
2018-04-22T19:40:00.983Z,16.10
2018-04-22T19:43:06.297Z,16.04
2018-04-22T19:46:12.387Z,15.98
2018-04-22T19:49:18.290Z,15.93
2018-04-22T19:52:25.333Z,15.88
2018-04-22T19:55:31.461Z,15.82
2018-04-22T19:58:38.332Z,15.78
2018-04-22T20:01:45.456Z,15.73
2018-04-22T20:04:52.637Z,15.69
2018-04-22T20:07:58.119Z,15.65
2018-04-22T20:11:04.213Z,15.60
2018-04-22T20:14:10.417Z,15.56
2018-04-22T20:17:16.533Z,15.53
2018-04-22T20:20:22.735Z,15.48
2018-04-22T20:23:29.922Z,15.46
2018-04-22T20:26:35.859Z,15.41
2018-04-22T20:29:41.689Z,15.38
2018-04-22T20:32:47.921Z,15.35
2018-04-22T20:35:54.955Z,15.33
2018-04-22T20:39:01.056Z,15.30
2018-04-22T20:42:06.704Z,15.26
2018-04-22T20:45:13.092Z,15.24
2018-04-22T20:48:18.882Z,15.21
2018-04-22T20:51:25.786Z,15.18
2018-04-22T20:54:32.621Z,15.16
2018-04-22T20:57:39.490Z,15.13
2018-04-22T21:00:45.026Z,15.09
2018-04-22T21:03:51.533Z,15.07
2018-04-22T21:06:57.058Z,15.05
2018-04-22T21:10:02.386Z,15.03
2018-04-22T21:13:09.637Z,15.01
2018-04-22T21:16:15.770Z,15.01
2018-04-22T21:19:22.578Z,15.00
2018-04-22T21:22:28.690Z,15.00
2018-04-22T21:25:33.984Z,15.00
2018-04-22T21:28:41.110Z,15.00
2018-04-22T21:31:47.169Z,15.03
2018-04-22T21:34:53.122Z,15.06
2018-04-22T21:37:59.250Z,15.11
2018-04-22T21:41:05.506Z,15.14
2018-04-22T21:44:11.893Z,15.18
2018-04-22T21:47:17.890Z,15.23
2018-04-22T21:50:23.977Z,15.29
2018-04-22T21:53:30.072Z,15.34
2018-04-22T21:56:36.046Z,15.37
2018-04-22T21:59:41.937Z,15.41
2018-04-22T22:02:47.925Z,15.47
2018-04-22T22:05:53.811Z,15.50
2018-04-22T22:08:59.783Z,15.52
2018-04-22T22:12:06.314Z,15.55
2018-04-22T22:15:11.589Z,15.56
2018-04-22T22:18:17.495Z,15.61
2018-04-22T22:21:23.539Z,15.64
2018-04-22T22:24:29.342Z,15.68
2018-04-22T22:27:35.544Z,15.68
2018-04-22T22:30:41.370Z,15.69
2018-04-22T22:33:47.441Z,15.69
2018-04-22T22:36:53.347Z,15.69
2018-04-22T22:39:59.356Z,15.67
2018-04-22T22:43:05.482Z,15.67
2018-04-22T22:46:11.453Z,15.65
2018-04-22T22:49:17.552Z,15.65
2018-04-22T22:52:23.550Z,15.64
2018-04-22T22:55:29.641Z,15.62
2018-04-22T22:58:35.824Z,15.59
2018-04-22T23:01:42.218Z,15.58
2018-04-22T23:04:48.107Z,15.55
2018-04-22T23:07:54.325Z,15.51
2018-04-22T23:11:00.102Z,15.48
2018-04-22T23:14:05.365Z,15.43
2018-04-22T23:17:11.593Z,15.39
2018-04-22T23:20:17.386Z,15.35
2018-04-22T23:23:22.659Z,15.32
2018-04-22T23:26:28.911Z,15.28
2018-04-22T23:29:35.106Z,15.24
2018-04-22T23:32:40.361Z,15.22
2018-04-22T23:35:46.106Z,15.18
2018-04-22T23:38:52.229Z,15.15
2018-04-22T23:41:58.474Z,15.11
2018-04-22T23:45:04.205Z,15.06
2018-04-22T23:48:09.485Z,15.02
2018-04-22T23:51:14.749Z,14.97
2018-04-22T23:54:20.842Z,14.93
2018-04-22T23:57:26.110Z,14.90
